sensor_id;sensor_type;location;lat;lon;timestamp;P1;durP1;ratioP1;P2;durP2;ratioP2
1410;SDS011;700;51.906;8.404;2022-12-04T00:03:46;38.93;;;23.00;;
1410;SDS011;700;51.906;8.404;2022-12-04T00:08:50;41.07;;;24.10;;
1410;SDS011;700;51.906;8.404;2022-12-04T00:13:54;44.33;;;25.33;;
1410;SDS011;700;51.906;8.404;2022-12-04T00:18:56;37.47;;;23.50;;
1410;SDS011;700;51.906;8.404;2022-12-04T00:23:59;42.10;;;25.63;;
1410;SDS011;700;51.906;8.404;2022-12-04T00:29:02;40.37;;;24.97;;
1410;SDS011;700;51.906;8.404;2022-12-04T00:34:02;40.50;;;22.23;;
1410;SDS011;700;51.906;8.404;2022-12-04T00:39:03;36.97;;;23.70;;
1410;SDS011;700;51.906;8.404;2022-12-04T00:44:06;42.60;;;22.90;;
1410;SDS011;700;51.906;8.404;2022-12-04T00:49:10;45.03;;;26.10;;
1410;SDS011;700;51.906;8.404;2022-12-04T00:54:12;39.10;;;23.27;;
1410;SDS011;700;51.906;8.404;2022-12-04T00:59:15;39.73;;;24.87;;
1410;SDS011;700;51.906;8.404;2022-12-04T01:04:16;43.43;;;25.80;;
1410;SDS011;700;51.906;8.404;2022-12-04T01:09:16;42.87;;;26.10;;
1410;SDS011;700;51.906;8.404;2022-12-04T01:14:17;40.57;;;23.33;;
1410;SDS011;700;51.906;8.404;2022-12-04T01:19:18;42.77;;;24.90;;
1410;SDS011;700;51.906;8.404;2022-12-04T01:24:19;41.80;;;26.30;;
1410;SDS011;700;51.906;8.404;2022-12-04T01:29:19;41.40;;;24.10;;
1410;SDS011;700;51.906;8.404;2022-12-04T01:34:22;44.53;;;25.10;;
1410;SDS011;700;51.906;8.404;2022-12-04T01:39:24;37.70;;;22.63;;
1410;SDS011;700;51.906;8.404;2022-12-04T01:44:24;43.67;;;22.87;;
1410;SDS011;700;51.906;8.404;2022-12-04T01:49:30;37.77;;;23.03;;
1410;SDS011;700;51.906;8.404;2022-12-04T01:54:38;38.70;;;21.50;;
1410;SDS011;700;51.906;8.404;2022-12-04T01:59:52;37.93;;;21.63;;
1410;SDS011;700;51.906;8.404;2022-12-04T02:05:14;40.73;;;23.10;;
1410;SDS011;700;51.906;8.404;2022-12-04T02:10:18;37.63;;;23.67;;
1410;SDS011;700;51.906;8.404;2022-12-04T02:20:40;35.40;;;23.30;;
1410;SDS011;700;51.906;8.404;2022-12-04T02:31:01;37.50;;;21.60;;
1410;SDS011;700;51.906;8.404;2022-12-04T02:36:12;34.17;;;21.10;;
1410;SDS011;700;51.906;8.404;2022-12-04T02:41:26;37.93;;;21.53;;
1410;SDS011;700;51.906;8.404;2022-12-04T02:46:31;39.20;;;22.07;;
1410;SDS011;700;51.906;8.404;2022-12-04T02:51:38;36.00;;;20.80;;
1410;SDS011;700;51.906;8.404;2022-12-04T02:56:44;35.33;;;20.90;;
1410;SDS011;700;51.906;8.404;2022-12-04T03:01:50;37.00;;;21.27;;
1410;SDS011;700;51.906;8.404;2022-12-04T03:07:16;41.83;;;22.77;;
1410;SDS011;700;51.906;8.404;2022-12-04T03:12:21;37.37;;;20.73;;
1410;SDS011;700;51.906;8.404;2022-12-04T03:17:35;35.50;;;20.90;;
1410;SDS011;700;51.906;8.404;2022-12-04T03:22:45;31.07;;;19.67;;
1410;SDS011;700;51.906;8.404;2022-12-04T03:27:53;35.70;;;21.07;;
1410;SDS011;700;51.906;8.404;2022-12-04T03:33:07;36.93;;;20.87;;
1410;SDS011;700;51.906;8.404;2022-12-04T03:43:36;32.23;;;19.00;;
1410;SDS011;700;51.906;8.404;2022-12-04T03:48:50;34.60;;;18.80;;
1410;SDS011;700;51.906;8.404;2022-12-04T03:59:19;32.17;;;17.97;;
1410;SDS011;700;51.906;8.404;2022-12-04T04:04:28;29.03;;;17.10;;
1410;SDS011;700;51.906;8.404;2022-12-04T04:09:34;29.40;;;16.77;;
1410;SDS011;700;51.906;8.404;2022-12-04T04:14:41;32.00;;;17.93;;
1410;SDS011;700;51.906;8.404;2022-12-04T04:20:07;29.73;;;17.30;;
1410;SDS011;700;51.906;8.404;2022-12-04T04:25:30;24.77;;;15.70;;
1410;SDS011;700;51.906;8.404;2022-12-04T04:30:35;25.57;;;15.47;;
1410;SDS011;700;51.906;8.404;2022-12-04T04:41:03;28.47;;;15.87;;
1410;SDS011;700;51.906;8.404;2022-12-04T04:46:15;26.13;;;16.20;;
1410;SDS011;700;51.906;8.404;2022-12-04T04:51:20;25.17;;;15.00;;
1410;SDS011;700;51.906;8.404;2022-12-04T04:56:21;28.97;;;15.33;;
1410;SDS011;700;51.906;8.404;2022-12-04T05:01:22;25.17;;;13.93;;
1410;SDS011;700;51.906;8.404;2022-12-04T05:06:29;25.60;;;14.77;;
1410;SDS011;700;51.906;8.404;2022-12-04T05:11:30;26.00;;;15.43;;
1410;SDS011;700;51.906;8.404;2022-12-04T05:16:30;27.10;;;16.07;;
1410;SDS011;700;51.906;8.404;2022-12-04T05:21:32;27.80;;;14.20;;
1410;SDS011;700;51.906;8.404;2022-12-04T05:26:33;23.63;;;14.50;;
1410;SDS011;700;51.906;8.404;2022-12-04T05:31:34;25.57;;;14.97;;
1410;SDS011;700;51.906;8.404;2022-12-04T05:36:34;22.60;;;13.43;;
1410;SDS011;700;51.906;8.404;2022-12-04T05:41:37;21.87;;;13.23;;
1410;SDS011;700;51.906;8.404;2022-12-04T05:46:40;27.17;;;14.17;;
1410;SDS011;700;51.906;8.404;2022-12-04T05:51:44;25.40;;;14.53;;
1410;SDS011;700;51.906;8.404;2022-12-04T05:56:45;25.80;;;14.07;;
1410;SDS011;700;51.906;8.404;2022-12-04T06:01:48;23.63;;;14.57;;
1410;SDS011;700;51.906;8.404;2022-12-04T06:06:48;27.83;;;14.03;;
1410;SDS011;700;51.906;8.404;2022-12-04T06:11:55;25.80;;;13.60;;
1410;SDS011;700;51.906;8.404;2022-12-04T06:16:56;25.30;;;14.97;;
1410;SDS011;700;51.906;8.404;2022-12-04T06:22:02;23.90;;;14.40;;
1410;SDS011;700;51.906;8.404;2022-12-04T06:27:02;22.20;;;14.70;;
1410;SDS011;700;51.906;8.404;2022-12-04T06:32:03;22.50;;;12.77;;
1410;SDS011;700;51.906;8.404;2022-12-04T06:37:04;19.83;;;13.40;;
1410;SDS011;700;51.906;8.404;2022-12-04T06:42:04;21.90;;;14.27;;
1410;SDS011;700;51.906;8.404;2022-12-04T06:47:07;25.07;;;13.10;;
1410;SDS011;700;51.906;8.404;2022-12-04T06:52:08;21.50;;;12.90;;
1410;SDS011;700;51.906;8.404;2022-12-04T06:57:11;18.57;;;11.87;;
1410;SDS011;700;51.906;8.404;2022-12-04T07:02:12;20.73;;;12.77;;
1410;SDS011;700;51.906;8.404;2022-12-04T07:07:17;23.70;;;13.93;;
1410;SDS011;700;51.906;8.404;2022-12-04T07:12:22;19.07;;;12.10;;
1410;SDS011;700;51.906;8.404;2022-12-04T07:17:25;22.33;;;13.30;;
1410;SDS011;700;51.906;8.404;2022-12-04T07:22:26;21.53;;;13.30;;
1410;SDS011;700;51.906;8.404;2022-12-04T07:27:28;21.13;;;12.10;;
1410;SDS011;700;51.906;8.404;2022-12-04T07:32:30;20.77;;;12.20;;
1410;SDS011;700;51.906;8.404;2022-12-04T07:37:33;18.10;;;11.70;;
1410;SDS011;700;51.906;8.404;2022-12-04T07:42:35;20.40;;;11.90;;
1410;SDS011;700;51.906;8.404;2022-12-04T07:47:41;20.37;;;11.57;;
1410;SDS011;700;51.906;8.404;2022-12-04T07:52:42;19.93;;;12.83;;
1410;SDS011;700;51.906;8.404;2022-12-04T07:57:44;15.97;;;11.97;;
1410;SDS011;700;51.906;8.404;2022-12-04T08:02:48;18.77;;;11.77;;
1410;SDS011;700;51.906;8.404;2022-12-04T08:07:49;18.10;;;12.40;;
1410;SDS011;700;51.906;8.404;2022-12-04T08:12:54;21.37;;;13.13;;
1410;SDS011;700;51.906;8.404;2022-12-04T08:17:55;20.47;;;12.33;;
1410;SDS011;700;51.906;8.404;2022-12-04T08:22:56;17.73;;;12.27;;
1410;SDS011;700;51.906;8.404;2022-12-04T08:27:56;20.43;;;12.97;;
1410;SDS011;700;51.906;8.404;2022-12-04T08:32:59;21.00;;;13.40;;
1410;SDS011;700;51.906;8.404;2022-12-04T08:38:02;19.10;;;13.57;;
1410;SDS011;700;51.906;8.404;2022-12-04T08:43:05;19.47;;;13.03;;
1410;SDS011;700;51.906;8.404;2022-12-04T08:48:05;23.60;;;13.73;;
1410;SDS011;700;51.906;8.404;2022-12-04T08:53:08;16.77;;;11.50;;
1410;SDS011;700;51.906;8.404;2022-12-04T08:58:09;21.73;;;12.83;;
1410;SDS011;700;51.906;8.404;2022-12-04T09:03:17;20.00;;;12.90;;
1410;SDS011;700;51.906;8.404;2022-12-04T09:08:19;22.73;;;13.20;;
1410;SDS011;700;51.906;8.404;2022-12-04T09:13:19;21.00;;;13.47;;
1410;SDS011;700;51.906;8.404;2022-12-04T09:18:20;25.00;;;13.50;;
1410;SDS011;700;51.906;8.404;2022-12-04T09:23:23;20.33;;;13.70;;
1410;SDS011;700;51.906;8.404;2022-12-04T09:28:24;23.33;;;14.67;;
1410;SDS011;700;51.906;8.404;2022-12-04T09:33:27;21.43;;;14.17;;
1410;SDS011;700;51.906;8.404;2022-12-04T09:38:30;27.03;;;15.03;;
1410;SDS011;700;51.906;8.404;2022-12-04T09:48:41;24.17;;;15.57;;
1410;SDS011;700;51.906;8.404;2022-12-04T09:53:47;22.20;;;16.10;;
1410;SDS011;700;51.906;8.404;2022-12-04T10:04:18;25.80;;;16.67;;
1410;SDS011;700;51.906;8.404;2022-12-04T10:09:23;24.40;;;16.13;;
1410;SDS011;700;51.906;8.404;2022-12-04T10:25:33;24.30;;;17.30;;
1410;SDS011;700;51.906;8.404;2022-12-04T10:30:39;32.27;;;18.60;;
1410;SDS011;700;51.906;8.404;2022-12-04T10:35:43;34.27;;;19.20;;
1410;SDS011;700;51.906;8.404;2022-12-04T10:40:47;31.67;;;19.80;;
1410;SDS011;700;51.906;8.404;2022-12-04T10:45:51;29.40;;;19.13;;
1410;SDS011;700;51.906;8.404;2022-12-04T10:50:55;30.10;;;19.73;;
1410;SDS011;700;51.906;8.404;2022-12-04T10:55:55;29.93;;;18.50;;
1410;SDS011;700;51.906;8.404;2022-12-04T11:01:13;31.97;;;21.20;;
1410;SDS011;700;51.906;8.404;2022-12-04T11:06:14;31.07;;;20.10;;
1410;SDS011;700;51.906;8.404;2022-12-04T11:11:28;34.27;;;20.53;;
1410;SDS011;700;51.906;8.404;2022-12-04T11:16:37;35.23;;;20.90;;
1410;SDS011;700;51.906;8.404;2022-12-04T11:21:45;34.13;;;19.83;;
1410;SDS011;700;51.906;8.404;2022-12-04T11:26:46;34.23;;;21.70;;
1410;SDS011;700;51.906;8.404;2022-12-04T11:31:50;34.50;;;21.90;;
1410;SDS011;700;51.906;8.404;2022-12-04T11:36:54;36.50;;;23.20;;
1410;SDS011;700;51.906;8.404;2022-12-04T11:42:30;32.03;;;20.60;;
1410;SDS011;700;51.906;8.404;2022-12-04T11:47:24;36.07;;;21.90;;
1410;SDS011;700;51.906;8.404;2022-12-04T11:52:34;33.70;;;22.70;;
1410;SDS011;700;51.906;8.404;2022-12-04T12:03:27;37.57;;;25.00;;
1410;SDS011;700;51.906;8.404;2022-12-04T12:25:02;39.07;;;23.63;;
1410;SDS011;700;51.906;8.404;2022-12-04T12:35:38;39.83;;;23.33;;
1410;SDS011;700;51.906;8.404;2022-12-04T12:40:46;37.20;;;21.20;;
1410;SDS011;700;51.906;8.404;2022-12-04T12:57:05;34.83;;;21.20;;
1410;SDS011;700;51.906;8.404;2022-12-04T13:02:37;35.37;;;20.10;;
1410;SDS011;700;51.906;8.404;2022-12-04T13:13:23;34.57;;;20.77;;
1410;SDS011;700;51.906;8.404;2022-12-04T13:18:29;39.23;;;22.67;;
1410;SDS011;700;51.906;8.404;2022-12-04T13:45:02;33.93;;;21.87;;
1410;SDS011;700;51.906;8.404;2022-12-04T14:05:37;30.37;;;20.67;;
1410;SDS011;700;51.906;8.404;2022-12-04T14:10:40;31.73;;;19.63;;
1410;SDS011;700;51.906;8.404;2022-12-04T14:15:41;33.13;;;22.70;;
1410;SDS011;700;51.906;8.404;2022-12-04T14:20:42;32.30;;;20.17;;
1410;SDS011;700;51.906;8.404;2022-12-04T14:25:43;33.83;;;21.60;;
1410;SDS011;700;51.906;8.404;2022-12-04T14:30:52;31.77;;;20.83;;
1410;SDS011;700;51.906;8.404;2022-12-04T14:36:28;32.03;;;20.43;;
1410;SDS011;700;51.906;8.404;2022-12-04T14:41:33;36.23;;;20.83;;
1410;SDS011;700;51.906;8.404;2022-12-04T14:46:45;34.37;;;20.47;;
1410;SDS011;700;51.906;8.404;2022-12-04T14:52:08;32.77;;;20.37;;
1410;SDS011;700;51.906;8.404;2022-12-04T14:57:47;34.90;;;21.00;;
1410;SDS011;700;51.906;8.404;2022-12-04T15:02:55;32.63;;;19.77;;
1410;SDS011;700;51.906;8.404;2022-12-04T15:08:00;34.50;;;21.40;;
1410;SDS011;700;51.906;8.404;2022-12-04T15:13:06;32.77;;;20.47;;
1410;SDS011;700;51.906;8.404;2022-12-04T15:18:16;32.07;;;20.23;;
1410;SDS011;700;51.906;8.404;2022-12-04T15:23:38;34.70;;;21.93;;
1410;SDS011;700;51.906;8.404;2022-12-04T15:28:44;35.90;;;22.07;;
1410;SDS011;700;51.906;8.404;2022-12-04T15:33:49;36.23;;;21.30;;
1410;SDS011;700;51.906;8.404;2022-12-04T15:38:56;36.30;;;21.03;;
1410;SDS011;700;51.906;8.404;2022-12-04T15:43:58;33.10;;;21.50;;
1410;SDS011;700;51.906;8.404;2022-12-04T15:49:03;33.03;;;21.33;;
1410;SDS011;700;51.906;8.404;2022-12-04T15:54:19;36.33;;;21.70;;
1410;SDS011;700;51.906;8.404;2022-12-04T15:59:22;37.83;;;21.90;;
1410;SDS011;700;51.906;8.404;2022-12-04T16:04:27;36.57;;;22.13;;
1410;SDS011;700;51.906;8.404;2022-12-04T16:09:28;32.97;;;20.40;;
1410;SDS011;700;51.906;8.404;2022-12-04T16:14:31;32.10;;;21.80;;
1410;SDS011;700;51.906;8.404;2022-12-04T16:19:33;31.10;;;20.43;;
1410;SDS011;700;51.906;8.404;2022-12-04T16:24:35;33.27;;;21.20;;
1410;SDS011;700;51.906;8.404;2022-12-04T16:29:35;28.83;;;19.83;;
1410;SDS011;700;51.906;8.404;2022-12-04T16:34:36;31.10;;;19.90;;
1410;SDS011;700;51.906;8.404;2022-12-04T16:39:39;33.00;;;19.83;;
1410;SDS011;700;51.906;8.404;2022-12-04T16:44:42;25.70;;;18.03;;
1410;SDS011;700;51.906;8.404;2022-12-04T16:49:49;28.67;;;19.57;;
1410;SDS011;700;51.906;8.404;2022-12-04T16:54:50;29.23;;;19.73;;
1410;SDS011;700;51.906;8.404;2022-12-04T16:59:51;28.63;;;18.80;;
1410;SDS011;700;51.906;8.404;2022-12-04T17:04:54;27.67;;;19.37;;
1410;SDS011;700;51.906;8.404;2022-12-04T17:09:54;30.13;;;18.87;;
1410;SDS011;700;51.906;8.404;2022-12-04T17:14:55;28.13;;;18.67;;
1410;SDS011;700;51.906;8.404;2022-12-04T17:19:55;29.20;;;19.37;;
1410;SDS011;700;51.906;8.404;2022-12-04T17:24:56;26.40;;;18.93;;
1410;SDS011;700;51.906;8.404;2022-12-04T17:29:57;30.80;;;19.27;;
1410;SDS011;700;51.906;8.404;2022-12-04T17:35:00;32.20;;;20.77;;
1410;SDS011;700;51.906;8.404;2022-12-04T17:40:06;29.77;;;17.43;;
1410;SDS011;700;51.906;8.404;2022-12-04T17:45:13;30.20;;;19.27;;
1410;SDS011;700;51.906;8.404;2022-12-04T17:50:18;26.57;;;17.10;;
1410;SDS011;700;51.906;8.404;2022-12-04T17:55:21;27.60;;;17.00;;
1410;SDS011;700;51.906;8.404;2022-12-04T18:00:24;27.23;;;17.43;;
1410;SDS011;700;51.906;8.404;2022-12-04T18:05:25;29.17;;;17.67;;
1410;SDS011;700;51.906;8.404;2022-12-04T18:10:27;22.40;;;15.87;;
1410;SDS011;700;51.906;8.404;2022-12-04T18:15:28;24.37;;;17.57;;
1410;SDS011;700;51.906;8.404;2022-12-04T18:20:33;22.20;;;16.73;;
1410;SDS011;700;51.906;8.404;2022-12-04T18:25:33;24.73;;;15.43;;
1410;SDS011;700;51.906;8.404;2022-12-04T18:30:34;22.37;;;16.07;;
1410;SDS011;700;51.906;8.404;2022-12-04T18:35:35;22.20;;;16.23;;
1410;SDS011;700;51.906;8.404;2022-12-04T18:40:38;24.30;;;16.50;;
1410;SDS011;700;51.906;8.404;2022-12-04T18:45:40;24.80;;;16.73;;
1410;SDS011;700;51.906;8.404;2022-12-04T18:50:43;26.13;;;16.30;;
1410;SDS011;700;51.906;8.404;2022-12-04T18:55:44;24.97;;;16.13;;
1410;SDS011;700;51.906;8.404;2022-12-04T19:00:47;21.87;;;16.20;;
1410;SDS011;700;51.906;8.404;2022-12-04T19:05:48;24.37;;;15.50;;
1410;SDS011;700;51.906;8.404;2022-12-04T19:10:49;23.97;;;16.53;;
1410;SDS011;700;51.906;8.404;2022-12-04T19:15:50;25.40;;;16.20;;
1410;SDS011;700;51.906;8.404;2022-12-04T19:20:53;26.83;;;17.77;;
1410;SDS011;700;51.906;8.404;2022-12-04T19:25:57;24.30;;;16.07;;
1410;SDS011;700;51.906;8.404;2022-12-04T19:31:01;26.80;;;16.60;;
1410;SDS011;700;51.906;8.404;2022-12-04T19:36:05;24.80;;;16.50;;
1410;SDS011;700;51.906;8.404;2022-12-04T19:41:07;24.00;;;16.17;;
1410;SDS011;700;51.906;8.404;2022-12-04T19:46:14;22.03;;;17.43;;
1410;SDS011;700;51.906;8.404;2022-12-04T19:51:17;24.20;;;17.50;;
1410;SDS011;700;51.906;8.404;2022-12-04T19:56:22;22.40;;;15.97;;
1410;SDS011;700;51.906;8.404;2022-12-04T20:01:25;21.37;;;15.17;;
1410;SDS011;700;51.906;8.404;2022-12-04T20:06:38;23.90;;;16.50;;
1410;SDS011;700;51.906;8.404;2022-12-04T20:11:40;23.47;;;17.20;;
1410;SDS011;700;51.906;8.404;2022-12-04T20:16:41;22.03;;;15.43;;
1410;SDS011;700;51.906;8.404;2022-12-04T20:21:42;20.03;;;15.47;;
1410;SDS011;700;51.906;8.404;2022-12-04T20:26:46;24.37;;;15.80;;
1410;SDS011;700;51.906;8.404;2022-12-04T20:31:49;23.13;;;15.50;;
1410;SDS011;700;51.906;8.404;2022-12-04T20:36:53;23.40;;;16.20;;
1410;SDS011;700;51.906;8.404;2022-12-04T20:41:54;19.90;;;14.57;;
1410;SDS011;700;51.906;8.404;2022-12-04T20:46:57;20.63;;;14.30;;
1410;SDS011;700;51.906;8.404;2022-12-04T20:51:58;19.00;;;14.17;;
1410;SDS011;700;51.906;8.404;2022-12-04T20:57:01;20.53;;;15.33;;
1410;SDS011;700;51.906;8.404;2022-12-04T21:02:04;24.27;;;16.67;;
1410;SDS011;700;51.906;8.404;2022-12-04T21:07:04;19.40;;;14.37;;
1410;SDS011;700;51.906;8.404;2022-12-04T21:12:06;24.53;;;17.10;;
1410;SDS011;700;51.906;8.404;2022-12-04T21:17:27;23.30;;;15.67;;
1410;SDS011;700;51.906;8.404;2022-12-04T21:22:32;22.87;;;14.70;;
1410;SDS011;700;51.906;8.404;2022-12-04T21:27:33;23.87;;;15.17;;
1410;SDS011;700;51.906;8.404;2022-12-04T21:32:33;22.97;;;15.00;;
1410;SDS011;700;51.906;8.404;2022-12-04T21:37:34;19.80;;;15.00;;
1410;SDS011;700;51.906;8.404;2022-12-04T21:42:35;25.53;;;16.27;;
1410;SDS011;700;51.906;8.404;2022-12-04T21:47:37;23.03;;;15.53;;
1410;SDS011;700;51.906;8.404;2022-12-04T21:52:40;24.57;;;16.13;;
1410;SDS011;700;51.906;8.404;2022-12-04T21:57:43;23.33;;;15.10;;
1410;SDS011;700;51.906;8.404;2022-12-04T22:02:44;22.90;;;15.53;;
1410;SDS011;700;51.906;8.404;2022-12-04T22:07:45;22.03;;;14.97;;
1410;SDS011;700;51.906;8.404;2022-12-04T22:12:45;23.03;;;15.43;;
1410;SDS011;700;51.906;8.404;2022-12-04T22:17:48;26.83;;;16.07;;
1410;SDS011;700;51.906;8.404;2022-12-04T22:22:49;23.87;;;16.47;;
1410;SDS011;700;51.906;8.404;2022-12-04T22:27:51;23.53;;;14.73;;
1410;SDS011;700;51.906;8.404;2022-12-04T22:32:54;21.67;;;15.23;;
1410;SDS011;700;51.906;8.404;2022-12-04T22:37:55;27.83;;;15.93;;
1410;SDS011;700;51.906;8.404;2022-12-04T22:42:58;22.63;;;15.67;;
1410;SDS011;700;51.906;8.404;2022-12-04T22:48:01;24.90;;;16.23;;
1410;SDS011;700;51.906;8.404;2022-12-04T22:53:02;19.30;;;14.50;;
1410;SDS011;700;51.906;8.404;2022-12-04T22:58:05;22.53;;;14.83;;
1410;SDS011;700;51.906;8.404;2022-12-04T23:03:06;23.40;;;15.80;;
1410;SDS011;700;51.906;8.404;2022-12-04T23:08:07;28.07;;;17.40;;
1410;SDS011;700;51.906;8.404;2022-12-04T23:13:08;22.60;;;15.30;;
1410;SDS011;700;51.906;8.404;2022-12-04T23:18:15;23.93;;;15.90;;
1410;SDS011;700;51.906;8.404;2022-12-04T23:23:16;22.83;;;15.30;;
1410;SDS011;700;51.906;8.404;2022-12-04T23:28:19;25.70;;;16.20;;
1410;SDS011;700;51.906;8.404;2022-12-04T23:33:20;26.67;;;17.03;;
1410;SDS011;700;51.906;8.404;2022-12-04T23:38:21;21.93;;;15.30;;
1410;SDS011;700;51.906;8.404;2022-12-04T23:43:22;25.23;;;15.83;;
1410;SDS011;700;51.906;8.404;2022-12-04T23:48:23;24.30;;;17.50;;
1410;SDS011;700;51.906;8.404;2022-12-04T23:53:24;24.40;;;14.87;;
1410;SDS011;700;51.906;8.404;2022-12-04T23:58:28;24.83;;;16.23;;
